createdAt,value
2023-08-26T00:00:56.215Z,1.55
2023-08-26T00:04:11.451Z,1.08
2023-08-26T00:06:57.420Z,1.30
2023-08-26T00:09:44.133Z,1.10
2023-08-26T00:12:31.101Z,1.05
2023-08-26T00:15:23.485Z,0.88
2023-08-26T00:18:15.001Z,1.38
2023-08-26T00:21:01.897Z,1.60
2023-08-26T00:23:47.466Z,1.25
2023-08-26T00:26:33.444Z,1.38
2023-08-26T00:29:19.001Z,1.40
2023-08-26T00:32:05.667Z,1.48
2023-08-26T00:34:52.728Z,1.55
2023-08-26T00:37:47.418Z,1.13
2023-08-26T00:40:37.676Z,1.85
2023-08-26T00:43:24.086Z,1.10
2023-08-26T00:46:10.204Z,1.55
2023-08-26T00:49:05.839Z,1.00
2023-08-26T00:52:02.161Z,1.50
2023-08-26T00:55:03.255Z,1.15
2023-08-26T00:57:54.564Z,1.63
2023-08-26T01:00:41.448Z,1.27
2023-08-26T01:03:27.463Z,1.40
2023-08-26T01:06:24.013Z,1.30
2023-08-26T01:09:40.290Z,1.67
2023-08-26T01:12:54.991Z,1.33
2023-08-26T01:15:44.392Z,1.30
2023-08-26T01:18:30.789Z,1.60
2023-08-26T01:21:21.061Z,1.75
2023-08-26T01:24:07.716Z,2.05
2023-08-26T01:26:54.097Z,1.63
2023-08-26T01:29:40.106Z,1.52
2023-08-26T01:32:51.986Z,1.60
2023-08-26T01:35:40.990Z,1.30
2023-08-26T01:38:29.423Z,1.80
2023-08-26T01:41:19.706Z,1.95
2023-08-26T01:44:08.233Z,2.20
2023-08-26T01:46:55.885Z,1.50
2023-08-26T01:49:41.813Z,1.92
2023-08-26T01:52:27.873Z,2.20
2023-08-26T01:55:14.511Z,2.53
2023-08-26T01:58:00.317Z,1.83
2023-08-26T02:00:45.924Z,2.10
2023-08-26T02:03:35.506Z,2.22
2023-08-26T02:06:24.198Z,2.25
2023-08-26T02:09:10.177Z,2.15
2023-08-26T02:11:56.124Z,2.20
2023-08-26T02:14:41.880Z,2.03
2023-08-26T02:17:27.282Z,2.08
2023-08-26T02:20:12.760Z,2.58
2023-08-26T02:22:59.249Z,2.00
2023-08-26T02:25:44.928Z,2.13
2023-08-26T02:28:30.542Z,2.25
2023-08-26T02:31:16.119Z,2.05
2023-08-26T02:34:01.865Z,2.22
2023-08-26T02:36:47.422Z,2.28
2023-08-26T02:39:32.960Z,2.30
2023-08-26T02:42:19.136Z,2.83
2023-08-26T02:45:05.678Z,2.10
2023-08-26T02:47:51.591Z,2.05
2023-08-26T02:50:38.868Z,2.55
2023-08-26T02:53:25.857Z,2.17
2023-08-26T02:56:11.296Z,2.55
2023-08-26T02:58:56.829Z,2.80
2023-08-26T03:01:42.296Z,2.60
2023-08-26T03:04:27.897Z,2.63
2023-08-26T03:07:13.427Z,3.33
2023-08-26T03:09:59.004Z,2.08
2023-08-26T03:12:44.566Z,2.58
2023-08-26T03:15:30.929Z,2.65
2023-08-26T03:18:16.383Z,3.05
2023-08-26T03:21:05.694Z,1.98
2023-08-26T03:23:51.197Z,2.42
2023-08-26T03:26:36.823Z,2.42
2023-08-26T03:29:22.411Z,2.17
2023-08-26T03:32:08.199Z,2.20
2023-08-26T03:34:54.404Z,2.40
2023-08-26T03:37:39.687Z,2.10
2023-08-26T03:40:25.242Z,2.47
2023-08-26T03:43:10.792Z,2.90
2023-08-26T03:45:56.818Z,1.88
2023-08-26T03:48:42.548Z,2.25
2023-08-26T03:51:28.058Z,2.58
2023-08-26T03:54:13.793Z,2.47
2023-08-26T03:56:59.588Z,1.85
2023-08-26T03:59:45.532Z,2.38
2023-08-26T04:02:30.871Z,2.22
2023-08-26T04:05:17.965Z,2.80
2023-08-26T04:08:03.909Z,2.58
2023-08-26T04:10:49.417Z,1.95
2023-08-26T04:13:35.049Z,2.28
2023-08-26T04:16:22.393Z,2.25
2023-08-26T04:19:08.100Z,2.00
2023-08-26T04:21:53.661Z,2.20
2023-08-26T04:24:38.987Z,2.20
2023-08-26T04:27:24.498Z,2.47
2023-08-26T04:30:13.127Z,2.88
2023-08-26T04:32:58.842Z,2.83
2023-08-26T04:35:44.375Z,2.47
2023-08-26T04:38:30.087Z,2.40
2023-08-26T04:41:15.830Z,2.10
2023-08-26T04:44:01.028Z,2.70
2023-08-26T04:46:46.966Z,2.15
2023-08-26T04:49:35.254Z,2.70
2023-08-26T04:52:20.731Z,2.67
2023-08-26T04:55:10.196Z,2.22
2023-08-26T04:57:57.384Z,2.00
2023-08-26T05:00:43.306Z,2.65
2023-08-26T05:03:29.334Z,2.88
2023-08-26T05:06:14.995Z,2.33
2023-08-26T05:09:02.022Z,2.58
2023-08-26T05:11:48.427Z,2.75
2023-08-26T05:14:34.009Z,4.05
2023-08-26T05:17:19.930Z,2.53
2023-08-26T05:20:06.371Z,2.80
2023-08-26T05:22:51.661Z,2.65
2023-08-26T05:25:37.356Z,2.78
2023-08-26T05:28:23.109Z,2.72
2023-08-26T05:31:08.558Z,2.78
2023-08-26T05:33:54.340Z,3.00
2023-08-26T05:36:39.953Z,3.00
2023-08-26T05:39:25.426Z,2.83
2023-08-26T05:42:10.951Z,2.97
2023-08-26T05:44:56.547Z,3.08
2023-08-26T05:47:42.240Z,2.60
2023-08-26T05:50:27.742Z,2.88
2023-08-26T05:53:13.584Z,3.20
2023-08-26T05:55:59.819Z,2.90
2023-08-26T05:58:44.943Z,2.78
2023-08-26T06:01:30.546Z,3.17
2023-08-26T06:04:16.171Z,2.97
2023-08-26T06:07:01.672Z,3.38
2023-08-26T06:09:47.403Z,2.75
2023-08-26T06:12:33.180Z,2.70
2023-08-26T06:15:19.049Z,2.45
2023-08-26T06:18:05.023Z,2.78
2023-08-26T06:20:53.993Z,2.58
2023-08-26T06:23:39.617Z,1.98
2023-08-26T06:26:25.214Z,1.85
2023-08-26T06:29:14.531Z,2.03
2023-08-26T06:32:00.050Z,1.98
2023-08-26T06:34:46.023Z,2.30
2023-08-26T06:37:32.007Z,1.80
2023-08-26T06:40:17.545Z,1.88
2023-08-26T06:43:05.857Z,1.80
2023-08-26T06:45:51.722Z,1.67
2023-08-26T06:48:37.378Z,1.90
2023-08-26T06:51:24.478Z,1.90
2023-08-26T06:54:10.355Z,2.17
2023-08-26T06:56:56.102Z,1.90
2023-08-26T06:59:42.324Z,1.73
2023-08-26T07:02:28.361Z,1.80
2023-08-26T07:05:13.913Z,1.90
2023-08-26T07:07:59.447Z,2.05
2023-08-26T07:10:46.109Z,2.20
2023-08-26T07:13:31.621Z,2.08
2023-08-26T07:16:17.517Z,2.20
2023-08-26T07:19:03.097Z,2.22
2023-08-26T07:21:49.943Z,2.28
2023-08-26T07:24:35.404Z,2.20
2023-08-26T07:27:21.054Z,2.30
2023-08-26T07:30:09.223Z,2.50
2023-08-26T07:32:55.941Z,2.50
2023-08-26T07:35:41.493Z,2.40
2023-08-26T07:38:27.177Z,2.88
2023-08-26T07:41:12.845Z,2.58
2023-08-26T07:43:58.389Z,2.78
2023-08-26T07:49:32.604Z,2.60
2023-08-26T07:52:18.100Z,2.30
2023-08-26T07:55:04.383Z,2.58
2023-08-26T07:57:50.105Z,1.70
2023-08-26T08:00:35.816Z,1.98
2023-08-26T08:03:21.337Z,2.08
2023-08-26T08:06:06.884Z,1.33
2023-08-26T08:08:52.950Z,1.50
2023-08-26T08:11:38.313Z,1.30
2023-08-26T08:14:24.101Z,1.63
2023-08-26T08:17:09.767Z,1.60
2023-08-26T08:19:55.765Z,1.70
2023-08-26T08:22:44.766Z,1.60
2023-08-26T08:25:30.944Z,1.30
2023-08-26T08:28:16.454Z,1.67
2023-08-26T08:31:02.259Z,1.30
2023-08-26T08:33:47.793Z,1.20
2023-08-26T08:36:33.564Z,1.08
2023-08-26T08:39:18.998Z,1.05
2023-08-26T08:42:05.852Z,1.08
2023-08-26T08:44:51.889Z,1.20
2023-08-26T08:47:38.215Z,1.10
2023-08-26T08:50:24.692Z,1.00
2023-08-26T08:53:15.037Z,1.08
2023-08-26T08:56:04.001Z,1.10
2023-08-26T08:58:50.988Z,1.20
2023-08-26T09:01:36.665Z,0.98
2023-08-26T09:04:22.899Z,1.10
2023-08-26T09:07:12.465Z,1.10
2023-08-26T09:10:02.530Z,1.30
2023-08-26T09:12:48.991Z,1.08
2023-08-26T09:15:34.676Z,1.40
2023-08-26T09:18:20.489Z,1.35
2023-08-26T09:21:11.007Z,1.20
2023-08-26T09:23:57.148Z,1.20
2023-08-26T09:26:59.913Z,0.70
2023-08-26T09:29:45.266Z,0.70
2023-08-26T09:32:43.614Z,0.82
2023-08-26T09:38:17.402Z,0.95
2023-08-26T09:41:03.427Z,0.60
2023-08-26T09:43:49.067Z,0.70
2023-08-26T09:46:36.868Z,2.30
2023-08-26T09:49:22.605Z,1.00
2023-08-26T09:52:08.087Z,0.75
2023-08-26T09:54:55.100Z,0.90
2023-08-26T09:57:41.386Z,0.70
2023-08-26T10:00:26.961Z,0.60
2023-08-26T10:03:13.631Z,0.70
2023-08-26T10:06:00.813Z,0.95
2023-08-26T10:08:49.504Z,1.08
2023-08-26T10:11:41.807Z,0.95
2023-08-26T10:14:29.984Z,1.02
2023-08-26T10:17:17.958Z,0.80
2023-08-26T10:20:05.143Z,1.10
2023-08-26T10:22:50.357Z,1.05
2023-08-26T10:25:36.260Z,0.68
2023-08-26T10:28:23.085Z,1.10
2023-08-26T10:31:09.842Z,0.80
2023-08-26T10:34:13.667Z,0.70
2023-08-26T10:36:59.465Z,0.85
2023-08-26T10:39:44.789Z,0.65
2023-08-26T10:42:30.475Z,0.75
2023-08-26T10:45:16.037Z,0.90
2023-08-26T10:48:01.721Z,1.30
2023-08-26T10:51:02.475Z,1.00
2023-08-26T10:53:49.939Z,0.95
2023-08-26T10:56:35.206Z,1.42
2023-08-26T10:59:36.148Z,1.08
2023-08-26T11:02:25.052Z,0.98
2023-08-26T11:05:10.400Z,1.10
2023-08-26T11:07:57.733Z,0.90
2023-08-26T11:10:43.937Z,1.67
2023-08-26T11:13:29.316Z,1.00
2023-08-26T11:16:18.275Z,1.00
2023-08-26T11:19:04.397Z,1.00
2023-08-26T11:21:49.787Z,1.17
2023-08-26T11:24:35.445Z,1.55
2023-08-26T11:27:21.168Z,1.30
2023-08-26T11:30:11.866Z,1.73
2023-08-26T11:33:07.046Z,1.50
2023-08-26T11:36:06.947Z,1.40
2023-08-26T11:38:54.687Z,1.23
2023-08-26T11:41:40.303Z,1.98
2023-08-26T11:44:27.133Z,1.25
2023-08-26T11:47:14.150Z,1.23
2023-08-26T11:49:59.600Z,1.00
2023-08-26T11:52:45.438Z,0.93
2023-08-26T11:55:36.156Z,0.93
2023-08-26T11:58:21.677Z,0.70
2023-08-26T12:01:09.026Z,0.77
2023-08-26T12:03:55.457Z,1.05
2023-08-26T12:06:41.922Z,1.25
2023-08-26T12:09:27.890Z,1.15
2023-08-26T12:12:13.516Z,1.38
2023-08-26T12:15:18.867Z,0.90
2023-08-26T12:18:05.869Z,0.70
2023-08-26T12:20:51.955Z,0.70
2023-08-26T12:23:38.707Z,0.90
2023-08-26T12:26:24.866Z,0.70
2023-08-26T12:29:11.325Z,0.88
2023-08-26T12:31:56.659Z,0.93
2023-08-26T12:34:42.300Z,0.68
2023-08-26T12:37:27.917Z,0.60
2023-08-26T12:40:13.528Z,0.90
2023-08-26T12:43:05.297Z,0.73
2023-08-26T12:45:51.327Z,0.88
2023-08-26T12:48:54.556Z,0.63
2023-08-26T12:51:41.141Z,0.80
2023-08-26T12:54:26.388Z,1.00
2023-08-26T12:57:12.089Z,0.80
2023-08-26T12:59:57.621Z,0.65
2023-08-26T13:02:45.826Z,1.35
2023-08-26T13:05:31.483Z,0.80
2023-08-26T13:08:16.961Z,0.80
2023-08-26T13:11:03.635Z,0.70
2023-08-26T13:13:49.357Z,1.08
2023-08-26T13:16:34.929Z,0.90
2023-08-26T13:19:20.558Z,0.73
2023-08-26T13:22:06.424Z,0.80
2023-08-26T13:24:52.559Z,0.70
2023-08-26T13:27:38.061Z,0.93
2023-08-26T13:30:23.996Z,0.90
2023-08-26T13:33:09.775Z,0.93
2023-08-26T13:35:55.525Z,0.40
2023-08-26T13:38:41.022Z,0.68
2023-08-26T13:41:27.329Z,0.47
2023-08-26T13:44:13.153Z,0.52
2023-08-26T13:46:58.789Z,0.60
2023-08-26T13:49:44.468Z,0.70
2023-08-26T13:52:29.884Z,0.50
2023-08-26T13:55:15.795Z,0.70
2023-08-26T13:58:16.083Z,0.77
2023-08-26T14:01:04.745Z,1.10
2023-08-26T14:03:54.102Z,1.15
2023-08-26T14:06:53.621Z,0.90
2023-08-26T14:09:39.297Z,0.68
2023-08-26T14:12:24.834Z,1.67
2023-08-26T14:15:29.518Z,0.52
2023-08-26T14:18:31.498Z,0.60
2023-08-26T14:21:18.077Z,0.93
2023-08-26T14:24:04.619Z,0.70
2023-08-26T14:26:50.105Z,0.95
2023-08-26T14:29:36.742Z,0.70
2023-08-26T14:32:24.226Z,0.93
2023-08-26T14:35:10.025Z,0.93
2023-08-26T14:37:56.229Z,0.93
2023-08-26T14:40:54.190Z,0.95
2023-08-26T14:43:40.571Z,0.40
2023-08-26T14:46:27.283Z,0.40
2023-08-26T14:49:15.403Z,0.38
2023-08-26T14:52:00.846Z,0.55
2023-08-26T14:54:46.496Z,0.50
2023-08-26T14:57:31.786Z,0.82
2023-08-26T15:00:22.720Z,0.98
2023-08-26T15:03:08.558Z,0.75
2023-08-26T15:06:07.104Z,0.93
2023-08-26T15:08:53.534Z,0.80
2023-08-26T15:11:39.421Z,0.65
2023-08-26T15:14:24.850Z,0.70
2023-08-26T15:17:11.011Z,0.45
2023-08-26T15:20:00.887Z,0.50
2023-08-26T15:22:46.650Z,0.70
2023-08-26T15:25:32.922Z,0.60
2023-08-26T15:28:18.267Z,0.60
2023-08-26T15:31:05.975Z,0.40
2023-08-26T15:33:51.855Z,0.52
2023-08-26T15:36:37.409Z,0.35
2023-08-26T15:39:24.204Z,0.70
2023-08-26T15:42:09.519Z,0.85
2023-08-26T15:45:20.360Z,0.80
2023-08-26T15:48:06.263Z,0.70
2023-08-26T15:50:52.423Z,0.90
2023-08-26T15:53:37.963Z,1.10
2023-08-26T15:56:23.279Z,1.20
2023-08-26T15:59:08.912Z,1.17
2023-08-26T16:01:56.756Z,1.67
2023-08-26T16:04:45.051Z,1.10
2023-08-26T16:07:31.488Z,1.88
2023-08-26T16:10:17.861Z,1.90
2023-08-26T16:13:04.674Z,5.88
2023-08-26T16:15:50.559Z,6.20
2023-08-26T16:18:36.639Z,4.03
2023-08-26T16:21:23.362Z,1.98
2023-08-26T16:24:10.144Z,1.73
2023-08-26T16:26:55.341Z,1.58
2023-08-26T16:29:41.284Z,1.10
2023-08-26T16:32:26.729Z,1.13
2023-08-26T16:35:12.043Z,1.33
2023-08-26T16:37:57.850Z,1.30
2023-08-26T16:40:43.247Z,1.20
2023-08-26T16:43:29.277Z,1.00
2023-08-26T16:46:15.288Z,1.50
2023-08-26T16:49:00.672Z,1.20
2023-08-26T16:51:46.328Z,1.15
2023-08-26T16:54:32.050Z,1.40
2023-08-26T16:57:18.261Z,1.35
2023-08-26T17:00:05.438Z,1.48
2023-08-26T17:02:51.325Z,1.17
2023-08-26T17:05:38.228Z,1.30
2023-08-26T17:08:27.147Z,1.48
2023-08-26T17:11:12.747Z,1.73
2023-08-26T17:14:00.812Z,1.98
2023-08-26T17:16:46.676Z,1.80
2023-08-26T17:19:32.290Z,1.67
2023-08-26T17:22:17.854Z,1.30
2023-08-26T17:25:03.763Z,1.95
2023-08-26T17:27:49.482Z,1.50
2023-08-26T17:30:35.200Z,1.67
2023-08-26T17:33:20.852Z,1.83
2023-08-26T17:36:06.404Z,1.80
2023-08-26T17:38:52.125Z,2.58
2023-08-26T17:41:37.861Z,3.60
2023-08-26T17:44:23.308Z,4.20
2023-08-26T17:47:09.013Z,3.28
2023-08-26T17:49:54.298Z,1.65
2023-08-26T17:52:40.206Z,2.65
2023-08-26T17:55:25.677Z,2.20
2023-08-26T17:58:11.753Z,1.80
2023-08-26T18:00:57.495Z,1.45
2023-08-26T18:03:42.965Z,1.70
2023-08-26T18:06:28.772Z,1.98
2023-08-26T18:09:14.378Z,2.00
2023-08-26T18:12:00.561Z,1.75
2023-08-26T18:14:45.928Z,1.20
2023-08-26T18:17:35.320Z,1.20
2023-08-26T18:20:21.586Z,1.67
2023-08-26T18:23:08.485Z,1.58
2023-08-26T18:25:53.750Z,1.63
2023-08-26T18:28:39.261Z,1.90
2023-08-26T18:31:24.866Z,3.15
2023-08-26T18:34:11.515Z,3.17
2023-08-26T18:36:57.149Z,2.80
2023-08-26T18:39:42.999Z,2.50
2023-08-26T18:42:28.361Z,2.20
2023-08-26T18:45:14.057Z,2.20
2023-08-26T18:47:59.455Z,2.05
2023-08-26T18:50:45.190Z,1.90
2023-08-26T18:53:35.841Z,2.15
2023-08-26T18:56:23.227Z,1.80
2023-08-26T18:59:08.855Z,2.00
2023-08-26T19:02:08.548Z,1.92
2023-08-26T19:04:54.135Z,2.47
2023-08-26T19:07:49.123Z,3.10
2023-08-26T19:10:39.974Z,3.17
2023-08-26T19:13:25.631Z,2.97
2023-08-26T19:16:12.394Z,2.80
2023-08-26T19:18:58.480Z,2.28
2023-08-26T19:21:44.138Z,2.20
2023-08-26T19:24:29.846Z,2.63
2023-08-26T19:27:15.844Z,2.17
2023-08-26T19:30:01.932Z,2.50
2023-08-26T19:32:50.472Z,1.95
2023-08-26T19:35:37.259Z,2.63
2023-08-26T19:38:22.871Z,2.45
2023-08-26T19:41:08.405Z,2.63
2023-08-26T19:43:54.021Z,2.78
2023-08-26T19:46:39.809Z,2.60
2023-08-26T19:49:25.639Z,2.38
2023-08-26T19:52:11.384Z,3.13
2023-08-26T19:54:57.936Z,2.20
2023-08-26T19:57:43.562Z,2.60
2023-08-26T20:00:30.400Z,3.00
2023-08-26T20:03:15.780Z,2.55
2023-08-26T20:06:01.612Z,2.40
2023-08-26T20:08:47.462Z,2.72
2023-08-26T20:11:33.008Z,2.60
2023-08-26T20:14:18.767Z,2.60
2023-08-26T20:17:04.587Z,2.75
2023-08-26T20:19:50.215Z,2.70
2023-08-26T20:22:36.828Z,2.15
2023-08-26T20:25:23.381Z,3.22
2023-08-26T20:28:09.678Z,2.70
2023-08-26T20:31:02.680Z,2.70
2023-08-26T20:33:50.721Z,2.65
2023-08-26T20:36:38.147Z,3.08
2023-08-26T20:39:23.567Z,2.78
2023-08-26T20:42:09.297Z,2.63
2023-08-26T20:44:57.725Z,2.70
2023-08-26T20:47:43.464Z,2.67
2023-08-26T20:50:28.979Z,2.97
2023-08-26T20:53:16.426Z,2.70
2023-08-26T20:56:02.711Z,3.03
2023-08-26T20:58:47.857Z,3.00
2023-08-26T21:01:34.656Z,3.00
2023-08-26T21:04:20.304Z,3.65
2023-08-26T21:07:06.602Z,2.67
2023-08-26T21:09:52.993Z,3.20
2023-08-26T21:12:38.720Z,3.35
2023-08-26T21:15:24.271Z,2.75
2023-08-26T21:18:09.847Z,3.45
2023-08-26T21:20:57.174Z,6.60
2023-08-26T21:23:43.031Z,7.82
2023-08-26T21:26:28.918Z,11.73
2023-08-26T21:29:14.596Z,13.70
2023-08-26T21:32:00.311Z,14.10
2023-08-26T21:34:45.894Z,16.55
2023-08-26T21:37:33.619Z,14.45
2023-08-26T21:40:19.243Z,8.65
2023-08-26T21:43:05.031Z,7.00
2023-08-26T21:45:50.556Z,5.22
2023-08-26T21:48:36.210Z,2.72
2023-08-26T21:51:21.784Z,1.80
2023-08-26T21:54:07.542Z,2.13
2023-08-26T21:56:52.921Z,1.50
2023-08-26T21:59:38.447Z,1.42
2023-08-26T22:02:24.110Z,1.65
2023-08-26T22:05:09.941Z,1.20
2023-08-26T22:07:55.512Z,1.63
2023-08-26T22:10:41.411Z,1.30
2023-08-26T22:13:27.007Z,1.50
2023-08-26T22:16:12.450Z,1.50
2023-08-26T22:18:58.034Z,1.33
2023-08-26T22:21:43.638Z,1.40
2023-08-26T22:24:29.348Z,1.60
2023-08-26T22:27:14.973Z,1.38
2023-08-26T22:30:00.747Z,1.20
2023-08-26T22:32:46.257Z,1.20
2023-08-26T22:35:31.624Z,1.13
2023-08-26T22:38:19.113Z,1.00
2023-08-26T22:41:04.706Z,1.75
2023-08-26T22:43:50.213Z,1.33
2023-08-26T22:46:35.936Z,2.55
2023-08-26T22:49:21.819Z,1.38
2023-08-26T22:52:07.354Z,1.67
2023-08-26T22:54:53.409Z,1.13
2023-08-26T22:57:39.181Z,1.23
2023-08-26T23:00:25.105Z,2.20
2023-08-26T23:03:10.888Z,1.85
2023-08-26T23:06:06.774Z,1.60
2023-08-26T23:08:54.062Z,1.30
2023-08-26T23:11:39.513Z,1.40
2023-08-26T23:14:25.435Z,1.40
2023-08-26T23:17:11.260Z,1.27
2023-08-26T23:19:56.808Z,1.60
2023-08-26T23:22:47.123Z,1.33
2023-08-26T23:25:52.155Z,1.52
2023-08-26T23:28:43.700Z,1.88
2023-08-26T23:31:32.307Z,1.80
2023-08-26T23:34:19.577Z,1.92
2023-08-26T23:37:05.966Z,1.70
2023-08-26T23:40:01.701Z,1.40
2023-08-26T23:42:48.971Z,1.80
2023-08-26T23:45:34.733Z,1.70
2023-08-26T23:48:20.372Z,1.70
2023-08-26T23:51:15.518Z,1.90
2023-08-26T23:54:04.344Z,1.85
2023-08-26T23:56:51.116Z,1.90
2023-08-26T23:59:36.662Z,1.75
